Time;durP1;ratioP1;P1;durP2;ratioP2;P2;SDS_P1;SDS_P2;PMS_P1;PMS_P2;Temp;Humidity;BMP_temperature;BMP_pressure;BME280_temperature;BME280_humidity;BME280_pressure;Samples;Min_cycle;Max_cycle;Signal;HPM_P1;HPM_P2
2023/12/20 00:01:09;;;;;;;18.80;13.70;;;;;;;;;;4994541;28;20341;-67
2023/12/20 00:03:38;;;;;;;17.63;13.52;;;;;;;;;;4986008;28;20325;-67
2023/12/20 00:06:07;;;;;;;21.67;14.38;;;;;;;;;;5003152;28;20344;-67
2023/12/20 00:08:36;;;;;;;22.08;14.88;;;;;;;;;;5002838;28;20281;-67
2023/12/20 00:11:04;;;;;;;22.05;15.90;;;;;;;;;;5001526;28;20278;-67
2023/12/20 00:13:32;;;;;;;22.50;15.25;;;;;;;;;;5001461;28;20281;-67
2023/12/20 00:16:00;;;;;;;20.02;15.48;;;;;;;;;;5002349;28;20277;-67
2023/12/20 00:18:28;;;;;;;19.73;14.82;;;;;;;;;;5002349;28;20302;-67
2023/12/20 00:20:57;;;;;;;23.83;15.55;;;;;;;;;;5001659;28;20262;-67
2023/12/20 00:23:26;;;;;;;22.75;15.02;;;;;;;;;;5000916;28;20285;-67
2023/12/20 00:25:54;;;;;;;19.25;14.27;;;;;;;;;;5002860;28;20317;-67
2023/12/20 00:28:23;;;;;;;24.55;16.85;;;;;;;;;;5004331;28;20688;-67
2023/12/20 00:30:51;;;;;;;20.83;15.02;;;;;;;;;;5005116;28;20258;-67
2023/12/20 00:33:19;;;;;;;22.20;16.27;;;;;;;;;;5004659;28;20231;-67
2023/12/20 00:35:48;;;;;;;22.90;15.20;;;;;;;;;;5006151;28;20287;-69
2023/12/20 00:38:16;;;;;;;20.10;14.90;;;;;;;;;;5005637;28;20230;-66
2023/12/20 00:40:46;;;;;;;20.05;14.40;;;;;;;;;;4984966;28;20321;-67
2023/12/20 00:43:14;;;;;;;23.92;14.40;;;;;;;;;;4993799;28;20705;-67
2023/12/20 00:45:42;;;;;;;20.42;14.93;;;;;;;;;;5003270;28;20744;-67
2023/12/20 00:48:10;;;;;;;22.88;15.40;;;;;;;;;;5004736;28;20321;-67
2023/12/20 00:50:38;;;;;;;25.08;14.60;;;;;;;;;;5002704;28;20263;-68
2023/12/20 00:53:07;;;;;;;21.92;14.65;;;;;;;;;;5002399;28;20251;-68
2023/12/20 00:55:35;;;;;;;24.30;15.63;;;;;;;;;;5003303;28;20282;-68
2023/12/20 00:58:04;;;;;;;19.00;12.32;;;;;;;;;;5002730;28;20267;-68
2023/12/20 01:00:33;;;;;;;20.45;14.35;;;;;;;;;;5002060;28;20254;-68
2023/12/20 01:03:01;;;;;;;24.20;14.57;;;;;;;;;;4984612;28;20286;-68
2023/12/20 01:05:29;;;;;;;20.77;13.40;;;;;;;;;;4989284;28;20309;-68
2023/12/20 01:07:57;;;;;;;20.02;13.52;;;;;;;;;;4999941;28;20286;-68
2023/12/20 01:10:28;;;;;;;25.98;15.40;;;;;;;;;;4991975;28;20274;-68
2023/12/20 01:12:56;;;;;;;19.83;13.73;;;;;;;;;;4978696;28;20694;-68
2023/12/20 01:15:25;;;;;;;18.88;13.32;;;;;;;;;;4984696;28;20294;-68
2023/12/20 01:17:53;;;;;;;15.32;12.45;;;;;;;;;;4990989;28;20294;-68
2023/12/20 01:20:22;;;;;;;14.88;12.27;;;;;;;;;;4988153;28;20290;-68
2023/12/20 01:22:50;;;;;;;15.10;11.55;;;;;;;;;;4997116;28;20277;-67
2023/12/20 01:25:18;;;;;;;16.27;11.77;;;;;;;;;;4998401;28;20275;-68
2023/12/20 01:27:47;;;;;;;19.02;12.63;;;;;;;;;;4998384;28;20713;-68
2023/12/20 01:30:15;;;;;;;13.38;11.85;;;;;;;;;;4992418;28;20706;-68
2023/12/20 01:32:45;;;;;;;16.50;12.13;;;;;;;;;;4997597;28;20285;-68
2023/12/20 01:35:13;;;;;;;16.52;11.60;;;;;;;;;;4998531;28;20268;-68
2023/12/20 01:37:41;;;;;;;14.65;10.43;;;;;;;;;;4981362;28;20290;-68
2023/12/20 01:40:10;;;;;;;15.68;10.32;;;;;;;;;;4979464;28;20259;-68
2023/12/20 01:42:38;;;;;;;12.40;11.07;;;;;;;;;;4979127;28;20287;-68
2023/12/20 01:45:07;;;;;;;11.40;9.43;;;;;;;;;;4991827;28;20223;-68
2023/12/20 01:47:36;;;;;;;11.00;9.80;;;;;;;;;;4997129;28;20211;-67
2023/12/20 01:50:07;;;;;;;13.82;10.70;;;;;;;;;;4997720;28;20258;-68
2023/12/20 01:52:36;;;;;;;14.80;10.05;;;;;;;;;;4998323;28;20293;-68
2023/12/20 01:55:11;;;;;;;13.25;10.00;;;;;;;;;;4998091;28;20291;-68
2023/12/20 01:57:39;;;;;;;14.25;10.65;;;;;;;;;;4998796;28;20274;-68
2023/12/20 02:00:09;;;;;;;12.75;9.15;;;;;;;;;;4997768;28;20207;-68
2023/12/20 02:02:40;;;;;;;14.68;9.05;;;;;;;;;;4990216;28;20285;-68
2023/12/20 02:05:10;;;;;;;15.13;9.93;;;;;;;;;;4993765;28;20245;-68
2023/12/20 02:07:39;;;;;;;12.13;9.98;;;;;;;;;;4997461;28;20278;-68
2023/12/20 02:10:07;;;;;;;14.57;10.10;;;;;;;;;;4997412;28;20277;-68
2023/12/20 02:12:36;;;;;;;11.00;7.95;;;;;;;;;;4996060;28;20262;-68
2023/12/20 02:15:04;;;;;;;11.63;9.05;;;;;;;;;;4985689;28;20251;-68
2023/12/20 02:17:33;;;;;;;13.23;9.90;;;;;;;;;;4977144;28;20286;-68
2023/12/20 02:20:01;;;;;;;10.63;8.88;;;;;;;;;;4989035;28;20289;-68
2023/12/20 02:22:31;;;;;;;10.73;8.57;;;;;;;;;;4996262;28;20309;-68
2023/12/20 02:24:59;;;;;;;9.93;8.48;;;;;;;;;;4962587;28;20294;-68
2023/12/20 02:27:27;;;;;;;11.93;8.38;;;;;;;;;;4996425;28;20263;-68
2023/12/20 02:29:55;;;;;;;11.63;8.38;;;;;;;;;;4987919;28;20709;-68
2023/12/20 02:32:25;;;;;;;11.07;8.63;;;;;;;;;;4978951;28;20285;-68
2023/12/20 02:34:54;;;;;;;11.05;9.00;;;;;;;;;;4996151;28;20266;-68
2023/12/20 02:37:22;;;;;;;10.55;8.07;;;;;;;;;;4995681;28;20254;-68
2023/12/20 02:39:52;;;;;;;8.48;7.60;;;;;;;;;;4995106;28;20281;-68
2023/12/20 02:42:20;;;;;;;8.63;7.72;;;;;;;;;;4996114;28;20207;-68
2023/12/20 02:44:48;;;;;;;12.10;8.70;;;;;;;;;;4995067;28;20306;-68
2023/12/20 02:47:16;;;;;;;11.05;7.78;;;;;;;;;;4995433;28;20329;-68
2023/12/20 02:49:44;;;;;;;9.60;7.90;;;;;;;;;;4978350;28;20285;-68
2023/12/20 02:52:13;;;;;;;7.82;6.93;;;;;;;;;;4995136;28;20278;-68
2023/12/20 02:54:41;;;;;;;10.52;6.80;;;;;;;;;;4996761;28;20741;-68
2023/12/20 02:57:10;;;;;;;6.80;6.05;;;;;;;;;;4981358;28;20717;-68
2023/12/20 02:59:39;;;;;;;8.18;6.10;;;;;;;;;;4999683;28;20271;-68
2023/12/20 03:02:07;;;;;;;10.50;6.35;;;;;;;;;;4997352;28;20729;-68
2023/12/20 03:04:35;;;;;;;7.43;6.35;;;;;;;;;;4984216;28;20286;-68
2023/12/20 03:07:03;;;;;;;10.02;7.10;;;;;;;;;;5003766;28;20274;-68
2023/12/20 03:09:31;;;;;;;8.32;6.70;;;;;;;;;;5004720;28;20242;-68
2023/12/20 03:11:59;;;;;;;9.68;7.40;;;;;;;;;;5004286;28;20226;-68
2023/12/20 03:14:29;;;;;;;8.35;7.03;;;;;;;;;;4988625;28;20230;-68
2023/12/20 03:16:57;;;;;;;11.10;10.00;;;;;;;;;;5005543;28;20231;-68
2023/12/20 03:19:25;;;;;;;28.73;19.85;;;;;;;;;;5004146;28;20267;-68
2023/12/20 03:21:54;;;;;;;26.38;20.95;;;;;;;;;;5004705;28;20233;-68
2023/12/20 03:24:22;;;;;;;7.03;6.30;;;;;;;;;;5004640;28;20252;-68
2023/12/20 03:26:50;;;;;;;8.23;6.20;;;;;;;;;;4994150;28;20274;-68
2023/12/20 03:29:18;;;;;;;5.88;4.78;;;;;;;;;;4984866;28;20235;-68
2023/12/20 03:31:48;;;;;;;6.15;5.38;;;;;;;;;;4986381;28;20266;-68
2023/12/20 03:34:16;;;;;;;6.60;4.30;;;;;;;;;;4983118;28;20259;-68
2023/12/20 03:36:47;;;;;;;5.75;5.25;;;;;;;;;;4989633;28;20227;-68
2023/12/20 03:39:15;;;;;;;5.63;5.13;;;;;;;;;;5002964;28;20223;-67
2023/12/20 03:41:44;;;;;;;3.97;3.63;;;;;;;;;;5003702;28;20267;-68
2023/12/20 03:44:12;;;;;;;3.20;3.00;;;;;;;;;;4990480;28;20257;-68
2023/12/20 03:46:40;;;;;;;5.15;3.25;;;;;;;;;;4986579;28;20283;-68
2023/12/20 03:49:10;;;;;;;3.33;3.03;;;;;;;;;;4999927;28;20233;-68
2023/12/20 03:51:38;;;;;;;2.83;2.63;;;;;;;;;;5005043;28;20648;-68
2023/12/20 03:54:06;;;;;;;3.40;2.35;;;;;;;;;;5003804;28;20223;-67
2023/12/20 03:56:34;;;;;;;20.48;4.85;;;;;;;;;;5004913;28;20218;-68
2023/12/20 03:59:02;;;;;;;2.10;2.00;;;;;;;;;;4992128;28;20259;-68
2023/12/20 04:01:31;;;;;;;2.45;2.25;;;;;;;;;;4993454;28;20242;-68
2023/12/20 04:03:59;;;;;;;2.40;2.30;;;;;;;;;;5004254;28;20266;-68
2023/12/20 04:06:29;;;;;;;2.28;2.17;;;;;;;;;;5005490;28;20275;-68
2023/12/20 04:08:57;;;;;;;2.20;2.10;;;;;;;;;;4985544;28;20238;-68
2023/12/20 04:11:25;;;;;;;2.03;1.92;;;;;;;;;;5005714;28;20291;-68
2023/12/20 04:13:53;;;;;;;2.55;2.42;;;;;;;;;;5004569;28;20230;-68
2023/12/20 04:16:21;;;;;;;2.70;2.50;;;;;;;;;;5005509;28;20250;-68
2023/12/20 04:18:50;;;;;;;2.40;2.20;;;;;;;;;;5004021;28;20241;-67
2023/12/20 04:21:18;;;;;;;1.90;1.80;;;;;;;;;;4995280;28;20246;-68
2023/12/20 04:23:47;;;;;;;2.10;2.00;;;;;;;;;;5003384;28;20226;-68
2023/12/20 04:26:15;;;;;;;1.75;1.65;;;;;;;;;;5004390;28;20234;-68
2023/12/20 04:28:44;;;;;;;3.38;3.17;;;;;;;;;;5003468;28;20246;-68
2023/12/20 04:31:12;;;;;;;3.15;2.95;;;;;;;;;;5001304;28;20748;-66
2023/12/20 04:33:40;;;;;;;3.60;3.40;;;;;;;;;;5003193;28;20267;-68
2023/12/20 04:36:09;;;;;;;1.83;1.73;;;;;;;;;;5004180;28;20264;-68
2023/12/20 04:38:37;;;;;;;2.38;2.28;;;;;;;;;;4969977;28;20262;-68
2023/12/20 04:41:07;;;;;;;1.40;1.40;;;;;;;;;;5003581;28;20674;-68
2023/12/20 04:43:35;;;;;;;1.75;1.65;;;;;;;;;;5003271;28;20258;-68
2023/12/20 04:46:03;;;;;;;2.10;2.00;;;;;;;;;;5006787;28;20245;-68
2023/12/20 04:48:31;;;;;;;2.28;2.08;;;;;;;;;;5005553;28;20270;-68
2023/12/20 04:51:00;;;;;;;2.10;1.90;;;;;;;;;;5006178;28;20260;-68
2023/12/20 04:53:28;;;;;;;2.63;2.42;;;;;;;;;;5007274;28;20246;-68
2023/12/20 04:55:56;;;;;;;2.30;2.10;;;;;;;;;;5007309;28;20238;-67
2023/12/20 04:58:26;;;;;;;3.05;2.85;;;;;;;;;;5005823;28;20254;-66
2023/12/20 05:00:54;;;;;;;2.83;2.65;;;;;;;;;;4989415;28;20255;-67
2023/12/20 05:03:22;;;;;;;2.97;2.38;;;;;;;;;;5001618;28;20258;-67
2023/12/20 05:05:50;;;;;;;3.05;2.85;;;;;;;;;;4988859;28;20272;-67
2023/12/20 05:08:19;;;;;;;3.33;3.13;;;;;;;;;;4996844;28;20302;-67
2023/12/20 05:10:47;;;;;;;2.80;2.55;;;;;;;;;;4991428;28;20249;-66
2023/12/20 05:13:16;;;;;;;3.47;3.28;;;;;;;;;;5004665;28;20214;-67
2023/12/20 05:15:46;;;;;;;3.33;3.03;;;;;;;;;;4999597;28;20262;-67
2023/12/20 05:18:14;;;;;;;3.60;3.33;;;;;;;;;;5005683;28;20692;-67
2023/12/20 05:20:42;;;;;;;3.60;3.30;;;;;;;;;;5004277;28;20267;-67
2023/12/20 05:23:11;;;;;;;3.95;3.65;;;;;;;;;;5013866;28;20290;-67
2023/12/20 05:25:39;;;;;;;3.70;3.40;;;;;;;;;;5004022;28;20254;-67
2023/12/20 05:28:08;;;;;;;3.60;3.33;;;;;;;;;;5005234;28;20274;-67
2023/12/20 05:30:36;;;;;;;3.38;3.08;;;;;;;;;;5003121;28;20314;-67
2023/12/20 05:33:06;;;;;;;3.45;3.13;;;;;;;;;;4998998;28;20262;-66
2023/12/20 05:35:34;;;;;;;4.88;4.40;;;;;;;;;;5004217;28;20688;-67
2023/12/20 05:38:02;;;;;;;3.40;3.10;;;;;;;;;;5003442;28;20250;-67
2023/12/20 05:40:30;;;;;;;4.72;4.32;;;;;;;;;;5002114;28;20262;-67
2023/12/20 05:42:59;;;;;;;4.30;4.00;;;;;;;;;;5000532;28;20278;-67
2023/12/20 05:45:27;;;;;;;3.72;3.40;;;;;;;;;;5005363;28;20246;-67
2023/12/20 05:47:55;;;;;;;3.35;3.00;;;;;;;;;;5003899;28;20301;-67
2023/12/20 05:50:25;;;;;;;3.05;2.85;;;;;;;;;;5005000;28;20248;-67
2023/12/20 05:52:53;;;;;;;3.28;2.92;;;;;;;;;;4983870;28;20291;-67
2023/12/20 05:55:22;;;;;;;3.90;3.00;;;;;;;;;;5003636;28;20226;-67
2023/12/20 05:57:50;;;;;;;3.85;2.67;;;;;;;;;;5002972;28;20274;-67
2023/12/20 06:00:18;;;;;;;3.50;3.20;;;;;;;;;;5002268;28;20258;-67
2023/12/20 06:02:47;;;;;;;3.03;2.72;;;;;;;;;;4990994;28;20202;-67
2023/12/20 06:05:15;;;;;;;4.07;3.78;;;;;;;;;;5002974;28;20278;-67
2023/12/20 06:07:45;;;;;;;3.53;3.33;;;;;;;;;;5003285;28;20310;-66
2023/12/20 06:10:13;;;;;;;4.13;3.83;;;;;;;;;;5004844;28;20262;-66
2023/12/20 06:12:41;;;;;;;4.20;3.88;;;;;;;;;;5003257;28;20278;-67
2023/12/20 06:15:10;;;;;;;3.92;3.63;;;;;;;;;;5005207;28;20666;-66
2023/12/20 06:17:38;;;;;;;3.95;3.65;;;;;;;;;;5004387;28;20263;-66
2023/12/20 06:20:07;;;;;;;4.50;4.10;;;;;;;;;;4986291;28;20259;-67
2023/12/20 06:22:36;;;;;;;5.28;4.47;;;;;;;;;;5003587;28;20258;-66
2023/12/20 06:25:06;;;;;;;4.85;4.45;;;;;;;;;;5002895;28;20259;-67
2023/12/20 06:27:35;;;;;;;8.20;5.55;;;;;;;;;;5002344;28;20681;-67
2023/12/20 06:30:03;;;;;;;6.40;5.90;;;;;;;;;;4975481;28;20294;-67
2023/12/20 06:32:31;;;;;;;5.45;4.43;;;;;;;;;;4999643;28;20293;-66
2023/12/20 06:34:59;;;;;;;5.53;5.03;;;;;;;;;;4998114;28;20282;-66
2023/12/20 06:37:28;;;;;;;6.00;5.45;;;;;;;;;;4999956;28;20294;-66
2023/12/20 06:39:57;;;;;;;8.13;7.43;;;;;;;;;;4997266;28;20298;-67
2023/12/20 06:42:26;;;;;;;5.53;5.00;;;;;;;;;;4993413;28;20262;-66
2023/12/20 06:44:55;;;;;;;5.93;5.40;;;;;;;;;;4990509;28;20258;-66
2023/12/20 06:47:23;;;;;;;6.07;5.47;;;;;;;;;;4998137;28;20281;-66
2023/12/20 06:49:51;;;;;;;6.05;5.07;;;;;;;;;;5002522;28;20278;-66
2023/12/20 06:52:19;;;;;;;5.88;5.18;;;;;;;;;;5001986;28;20294;-68
2023/12/20 06:54:47;;;;;;;4.43;3.90;;;;;;;;;;5003263;28;20241;-66
2023/12/20 06:57:16;;;;;;;5.07;4.68;;;;;;;;;;4997461;28;20910;-69
2023/12/20 06:59:45;;;;;;;4.47;4.18;;;;;;;;;;4988442;28;20202;-65
2023/12/20 07:02:14;;;;;;;6.40;4.07;;;;;;;;;;4988468;28;20572;-65
2023/12/20 07:04:42;;;;;;;5.25;4.75;;;;;;;;;;4988862;28;20716;-66
2023/12/20 07:07:10;;;;;;;7.25;4.55;;;;;;;;;;4988668;28;20663;-64
2023/12/20 07:09:38;;;;;;;4.50;4.20;;;;;;;;;;4989319;28;20594;-66
2023/12/20 07:12:07;;;;;;;5.00;4.60;;;;;;;;;;4989845;28;20714;-66
2023/12/20 07:14:35;;;;;;;5.32;4.93;;;;;;;;;;4987704;28;20191;-65
2023/12/20 07:17:07;;;;;;;5.97;5.13;;;;;;;;;;4989520;28;20577;-66
2023/12/20 07:19:35;;;;;;;7.60;4.93;;;;;;;;;;4989051;28;20191;-66
2023/12/20 07:22:03;;;;;;;6.10;4.30;;;;;;;;;;4988244;28;20199;-65
2023/12/20 07:24:31;;;;;;;7.18;5.72;;;;;;;;;;4988883;28;20578;-65
2023/12/20 07:27:00;;;;;;;5.07;4.68;;;;;;;;;;4989692;28;20203;-66
2023/12/20 07:29:29;;;;;;;4.78;4.45;;;;;;;;;;4985537;28;20230;-67
2023/12/20 07:31:57;;;;;;;10.02;4.30;;;;;;;;;;4979510;28;20560;-67
2023/12/20 07:34:26;;;;;;;8.05;5.18;;;;;;;;;;4978112;28;20225;-66
2023/12/20 07:36:55;;;;;;;8.30;5.00;;;;;;;;;;4979200;28;20203;-66
2023/12/20 07:39:23;;;;;;;6.80;4.55;;;;;;;;;;4986384;28;20199;-64
2023/12/20 07:41:51;;;;;;;5.60;4.70;;;;;;;;;;4969180;28;20207;-66
2023/12/20 07:44:19;;;;;;;7.97;5.82;;;;;;;;;;4988581;28;20230;-65
2023/12/20 07:46:48;;;;;;;4.35;3.90;;;;;;;;;;4988305;28;20207;-66
2023/12/20 07:49:16;;;;;;;4.40;4.07;;;;;;;;;;4989386;28;20221;-66
2023/12/20 07:51:46;;;;;;;4.47;3.85;;;;;;;;;;4989472;28;20202;-66
2023/12/20 07:54:14;;;;;;;5.40;4.90;;;;;;;;;;4972036;28;20209;-68
2023/12/20 07:56:43;;;;;;;6.22;4.60;;;;;;;;;;4987829;28;20202;-68
2023/12/20 07:59:11;;;;;;;6.32;5.10;;;;;;;;;;4986930;28;20207;-68
2023/12/20 08:01:40;;;;;;;6.38;5.78;;;;;;;;;;4975992;28;20196;-68
2023/12/20 08:04:08;;;;;;;9.35;6.25;;;;;;;;;;4969425;28;20235;-67
2023/12/20 08:06:36;;;;;;;10.93;7.32;;;;;;;;;;4971462;28;20213;-68
2023/12/20 08:09:06;;;;;;;8.27;7.25;;;;;;;;;;4985416;28;20210;-68
2023/12/20 08:11:34;;;;;;;7.97;6.30;;;;;;;;;;4984982;28;20203;-68
2023/12/20 08:14:03;;;;;;;7.97;7.15;;;;;;;;;;4969559;28;20203;-68
2023/12/20 08:16:31;;;;;;;7.07;6.28;;;;;;;;;;4972684;28;20202;-68
2023/12/20 08:18:59;;;;;;;9.65;6.35;;;;;;;;;;4990286;28;20259;-69
2023/12/20 08:21:28;;;;;;;8.63;5.20;;;;;;;;;;4992229;28;20199;-69
2023/12/20 08:23:56;;;;;;;6.35;4.60;;;;;;;;;;4974985;28;20232;-68
2023/12/20 08:26:26;;;;;;;3.92;3.63;;;;;;;;;;4992150;28;20203;-69
2023/12/20 08:28:54;;;;;;;3.58;3.25;;;;;;;;;;4991491;28;20222;-67
2023/12/20 08:31:22;;;;;;;3.42;3.13;;;;;;;;;;4984598;28;20199;-67
2023/12/20 08:33:52;;;;;;;4.40;3.30;;;;;;;;;;4987089;28;20579;-69
2023/12/20 08:36:22;;;;;;;3.67;2.70;;;;;;;;;;4990999;28;20202;-68
2023/12/20 08:38:50;;;;;;;3.30;2.97;;;;;;;;;;4991717;28;20203;-68
2023/12/20 08:41:19;;;;;;;5.85;1.88;;;;;;;;;;4990823;28;20211;-67
2023/12/20 08:43:48;;;;;;;3.22;2.80;;;;;;;;;;4972777;28;20231;-68
2023/12/20 08:46:17;;;;;;;4.40;2.00;;;;;;;;;;4983097;28;20205;-68
2023/12/20 08:48:45;;;;;;;15.70;2.72;;;;;;;;;;4988981;28;20715;-68
2023/12/20 08:51:14;;;;;;;5.60;2.33;;;;;;;;;;4991148;28;20665;-69
2023/12/20 08:53:44;;;;;;;3.60;2.58;;;;;;;;;;4974780;28;20645;-72
2023/12/20 08:56:13;;;;;;;8.90;2.88;;;;;;;;;;4990054;28;20228;-67
2023/12/20 08:58:41;;;;;;;2.33;1.67;;;;;;;;;;4990919;28;20561;-67
2023/12/20 09:01:11;;;;;;;4.10;1.60;;;;;;;;;;4991151;28;20213;-67
2023/12/20 09:03:39;;;;;;;5.55;1.90;;;;;;;;;;4992193;28;20241;-68
2023/12/20 09:06:07;;;;;;;2.00;1.50;;;;;;;;;;4993567;28;20201;-68
2023/12/20 09:08:36;;;;;;;3.28;1.60;;;;;;;;;;4996212;28;20278;-68
2023/12/20 09:11:04;;;;;;;3.25;2.20;;;;;;;;;;4994578;28;20290;-68
2023/12/20 09:13:32;;;;;;;3.13;1.90;;;;;;;;;;4992509;28;20210;-68
2023/12/20 09:16:01;;;;;;;3.67;1.70;;;;;;;;;;4977295;28;20207;-71
2023/12/20 09:18:30;;;;;;;3.45;1.92;;;;;;;;;;4998825;28;20273;-71
2023/12/20 09:20:58;;;;;;;1.38;1.27;;;;;;;;;;4997239;28;20282;-69
2023/12/20 09:23:27;;;;;;;5.15;1.60;;;;;;;;;;4991223;28;20215;-69
2023/12/20 09:25:55;;;;;;;4.05;1.52;;;;;;;;;;4991480;28;20665;-71
2023/12/20 09:28:23;;;;;;;4.10;2.55;;;;;;;;;;4990213;28;20199;-71
2023/12/20 09:30:51;;;;;;;3.75;1.40;;;;;;;;;;4988151;28;20657;-70
2023/12/20 09:33:20;;;;;;;2.65;1.80;;;;;;;;;;4990135;28;20251;-67
2023/12/20 09:35:49;;;;;;;5.20;2.40;;;;;;;;;;4986686;28;20199;-68
2023/12/20 09:38:17;;;;;;;2.80;2.33;;;;;;;;;;4989634;28;20585;-67
2023/12/20 09:40:46;;;;;;;3.00;1.73;;;;;;;;;;4990350;28;20191;-68
2023/12/20 09:43:16;;;;;;;3.20;2.00;;;;;;;;;;4974814;28;20199;-67
2023/12/20 09:45:47;;;;;;;9.07;2.38;;;;;;;;;;4986882;28;20213;-66
2023/12/20 09:48:18;;;;;;;2.13;1.85;;;;;;;;;;4984304;28;20205;-67
2023/12/20 09:50:46;;;;;;;4.35;2.30;;;;;;;;;;4990473;28;20210;-67
2023/12/20 09:53:17;;;;;;;2.17;1.95;;;;;;;;;;4989716;28;20206;-68
2023/12/20 09:55:45;;;;;;;4.18;1.88;;;;;;;;;;4989806;28;20191;-67
2023/12/20 09:58:13;;;;;;;3.13;1.60;;;;;;;;;;4989496;28;20210;-67
2023/12/20 10:00:42;;;;;;;4.60;2.88;;;;;;;;;;4989596;28;20209;-66
2023/12/20 10:03:10;;;;;;;3.28;2.20;;;;;;;;;;4967846;28;20222;-67
2023/12/20 10:05:40;;;;;;;4.40;2.22;;;;;;;;;;4987865;28;20230;-68
2023/12/20 10:08:08;;;;;;;6.28;2.58;;;;;;;;;;4990971;28;20296;-67
2023/12/20 10:10:38;;;;;;;4.93;2.00;;;;;;;;;;4989777;28;20223;-67
2023/12/20 10:13:07;;;;;;;5.75;2.30;;;;;;;;;;4988769;28;20199;-67
2023/12/20 10:15:36;;;;;;;4.30;2.40;;;;;;;;;;4975321;28;20217;-67
2023/12/20 10:18:05;;;;;;;3.50;1.83;;;;;;;;;;4988940;28;20280;-67
2023/12/20 10:20:33;;;;;;;7.22;2.55;;;;;;;;;;4987985;28;20203;-67
2023/12/20 10:23:02;;;;;;;5.28;2.90;;;;;;;;;;4971639;28;20233;-67
2023/12/20 10:25:31;;;;;;;5.55;2.30;;;;;;;;;;4990061;28;20203;-67
2023/12/20 10:28:13;;;;;;;5.85;2.55;;;;;;;;;;4989886;28;20203;-67
2023/12/20 10:30:42;;;;;;;8.07;3.15;;;;;;;;;;4990736;28;20703;-67
2023/12/20 10:33:10;;;;;;;5.30;2.30;;;;;;;;;;4989435;28;20571;-67
2023/12/20 10:35:39;;;;;;;6.65;2.50;;;;;;;;;;4983393;28;20657;-67
2023/12/20 10:38:09;;;;;;;5.35;2.80;;;;;;;;;;4988974;28;20567;-67
2023/12/20 10:40:37;;;;;;;2.67;2.10;;;;;;;;;;4990300;28;20206;-67
2023/12/20 10:43:06;;;;;;;3.13;2.70;;;;;;;;;;4988820;28;20673;-67
2023/12/20 10:45:35;;;;;;;3.67;2.42;;;;;;;;;;4977179;28;20228;-67
2023/12/20 10:48:04;;;;;;;9.13;2.92;;;;;;;;;;4978661;28;20211;-67
2023/12/20 10:50:33;;;;;;;5.32;2.20;;;;;;;;;;4989567;28;20218;-67
2023/12/20 10:53:01;;;;;;;10.50;3.22;;;;;;;;;;4989119;28;20207;-67
2023/12/20 10:55:29;;;;;;;5.22;2.60;;;;;;;;;;4987712;28;20560;-67
2023/12/20 10:58:02;;;;;;;2.83;2.60;;;;;;;;;;4953225;28;20209;-65
2023/12/20 11:00:31;;;;;;;5.53;2.90;;;;;;;;;;4990002;28;20198;-68
2023/12/20 11:03:02;;;;;;;5.40;2.50;;;;;;;;;;4974134;28;20203;-67
2023/12/20 11:05:35;;;;;;;6.93;2.70;;;;;;;;;;4989209;28;20238;-68
2023/12/20 11:08:05;;;;;;;8.13;3.30;;;;;;;;;;4983280;28;20190;-67
2023/12/20 11:10:36;;;;;;;3.70;2.13;;;;;;;;;;4990208;28;20781;-66
2023/12/20 11:13:09;;;;;;;5.60;3.10;;;;;;;;;;4988942;28;20205;-66
2023/12/20 11:15:38;;;;;;;7.32;3.30;;;;;;;;;;4978694;28;20212;-66
2023/12/20 11:18:07;;;;;;;6.22;2.80;;;;;;;;;;4970933;28;20563;-66
2023/12/20 11:20:39;;;;;;;10.23;2.72;;;;;;;;;;4976206;28;20244;-66
2023/12/20 11:23:08;;;;;;;6.25;2.30;;;;;;;;;;4990011;28;20227;-67
2023/12/20 11:25:48;;;;;;;7.13;2.88;;;;;;;;;;4983381;28;20210;-66
2023/12/20 11:28:17;;;;;;;7.80;2.72;;;;;;;;;;4989649;28;20197;-66
2023/12/20 11:30:49;;;;;;;6.22;3.13;;;;;;;;;;4989820;28;20704;-67
2023/12/20 11:33:22;;;;;;;7.88;3.08;;;;;;;;;;4989591;28;20640;-66
2023/12/20 11:35:51;;;;;;;14.27;3.28;;;;;;;;;;4989780;28;20205;-66
2023/12/20 11:38:21;;;;;;;11.80;3.22;;;;;;;;;;4980206;28;20204;-66
2023/12/20 11:40:50;;;;;;;10.00;3.30;;;;;;;;;;4988469;28;20217;-66
2023/12/20 11:43:31;;;;;;;6.05;2.85;;;;;;;;;;4986861;28;20199;-66
2023/12/20 11:46:04;;;;;;;7.53;3.60;;;;;;;;;;4980606;28;20194;-65
2023/12/20 11:48:34;;;;;;;7.30;3.28;;;;;;;;;;4986215;28;20198;-66
2023/12/20 11:51:03;;;;;;;9.27;3.45;;;;;;;;;;4987646;28;20218;-66
2023/12/20 11:53:33;;;;;;;10.02;3.17;;;;;;;;;;4987986;28;20199;-66
2023/12/20 11:56:02;;;;;;;10.10;4.45;;;;;;;;;;4988481;28;20645;-66
2023/12/20 11:58:31;;;;;;;11.93;3.50;;;;;;;;;;4991730;28;20202;-66
2023/12/20 12:01:02;;;;;;;9.57;3.05;;;;;;;;;;4991812;28;20194;-66
2023/12/20 12:03:30;;;;;;;8.23;5.40;;;;;;;;;;4986982;28;20646;-66
2023/12/20 12:06:00;;;;;;;71.57;43.20;;;;;;;;;;4987732;28;20186;-66
2023/12/20 12:08:29;;;;;;;21.75;10.90;;;;;;;;;;4988443;28;20194;-66
2023/12/20 12:10:57;;;;;;;9.90;4.03;;;;;;;;;;4970675;28;20215;-67
2023/12/20 12:13:27;;;;;;;6.07;3.10;;;;;;;;;;4971729;28;20658;-67
2023/12/20 12:15:55;;;;;;;11.73;4.45;;;;;;;;;;4970763;28;20657;-67
2023/12/20 12:18:23;;;;;;;3.88;2.60;;;;;;;;;;4986741;28;20209;-67
2023/12/20 12:20:51;;;;;;;6.25;2.60;;;;;;;;;;4987403;28;20209;-67
2023/12/20 12:23:25;;;;;;;6.30;2.75;;;;;;;;;;4984132;28;20202;-67
2023/12/20 12:25:55;;;;;;;6.97;2.40;;;;;;;;;;4986343;28;20672;-67
2023/12/20 12:28:23;;;;;;;11.02;2.50;;;;;;;;;;4988497;28;20203;-67
2023/12/20 12:30:58;;;;;;;3.95;2.88;;;;;;;;;;4986278;28;20214;-67
2023/12/20 12:33:26;;;;;;;6.57;2.03;;;;;;;;;;4987589;28;20196;-67
2023/12/20 12:35:55;;;;;;;6.38;1.75;;;;;;;;;;4986927;28;20612;-67
2023/12/20 12:38:23;;;;;;;10.52;2.63;;;;;;;;;;4976616;28;20209;-66
2023/12/20 12:40:53;;;;;;;4.25;2.30;;;;;;;;;;4982744;28;20276;-67
2023/12/20 12:43:22;;;;;;;9.57;2.35;;;;;;;;;;4987619;28;20191;-67
2023/12/20 12:45:51;;;;;;;4.75;1.85;;;;;;;;;;4986844;28;20542;-67
2023/12/20 12:48:19;;;;;;;7.45;1.98;;;;;;;;;;4968857;28;20257;-67
2023/12/20 12:50:47;;;;;;;4.80;2.33;;;;;;;;;;4968804;28;20223;-67
2023/12/20 12:53:16;;;;;;;3.88;2.38;;;;;;;;;;4980472;28;20248;-67
2023/12/20 12:55:44;;;;;;;5.65;2.58;;;;;;;;;;4987299;28;20578;-65
2023/12/20 12:58:14;;;;;;;3.95;1.95;;;;;;;;;;4980738;28;20211;-66
2023/12/20 13:00:42;;;;;;;8.02;2.67;;;;;;;;;;4971630;28;20198;-67
2023/12/20 13:03:10;;;;;;;5.47;2.58;;;;;;;;;;4982823;28;20213;-67
2023/12/20 13:05:39;;;;;;;7.50;2.10;;;;;;;;;;4984492;28;20230;-67
2023/12/20 13:08:07;;;;;;;5.75;2.45;;;;;;;;;;4991070;28;20203;-68
2023/12/20 13:10:36;;;;;;;12.48;3.08;;;;;;;;;;4975036;28;20233;-67
2023/12/20 13:13:04;;;;;;;9.57;4.22;;;;;;;;;;4987615;28;20199;-67
2023/12/20 13:15:34;;;;;;;2.72;2.53;;;;;;;;;;4973492;28;20209;-67
2023/12/20 13:18:02;;;;;;;7.53;2.00;;;;;;;;;;4990131;28;20195;-67
2023/12/20 13:20:30;;;;;;;6.55;1.98;;;;;;;;;;4971214;28;20497;-67
2023/12/20 13:22:59;;;;;;;6.75;2.08;;;;;;;;;;4989995;28;20657;-67
2023/12/20 13:25:27;;;;;;;6.13;2.50;;;;;;;;;;4979311;28;20207;-67
2023/12/20 13:27:55;;;;;;;5.25;2.90;;;;;;;;;;4990266;28;20584;-67
2023/12/20 13:30:23;;;;;;;13.70;2.60;;;;;;;;;;4989348;28;20217;-67
2023/12/20 13:32:53;;;;;;;6.57;2.13;;;;;;;;;;4990193;28;20206;-67
2023/12/20 13:35:21;;;;;;;5.32;1.77;;;;;;;;;;4990493;28;20195;-67
2023/12/20 13:37:50;;;;;;;7.40;2.20;;;;;;;;;;4982661;28;20199;-67
2023/12/20 13:40:18;;;;;;;12.32;2.40;;;;;;;;;;5001701;28;20406;-67
2023/12/20 13:42:46;;;;;;;5.75;2.30;;;;;;;;;;5011789;28;20569;-67
2023/12/20 13:45:14;;;;;;;6.15;1.90;;;;;;;;;;5008683;28;20231;-67
2023/12/20 13:47:42;;;;;;;10.82;2.25;;;;;;;;;;5024846;28;20199;-65
2023/12/20 13:50:12;;;;;;;3.70;2.13;;;;;;;;;;4984721;28;20206;-65
2023/12/20 13:52:40;;;;;;;5.85;2.20;;;;;;;;;;4987782;28;20223;-66
2023/12/20 13:55:09;;;;;;;10.30;2.00;;;;;;;;;;4986950;28;20247;-66
2023/12/20 13:57:39;;;;;;;7.88;2.13;;;;;;;;;;4987365;28;20202;-66
2023/12/20 14:00:14;;;;;;;7.30;1.70;;;;;;;;;;4992372;28;20224;-66
2023/12/20 14:02:42;;;;;;;6.05;2.25;;;;;;;;;;4988726;28;20231;-66
2023/12/20 14:05:11;;;;;;;4.13;2.00;;;;;;;;;;4971211;28;20246;-66
2023/12/20 14:07:40;;;;;;;10.63;2.25;;;;;;;;;;4973639;28;20560;-66
2023/12/20 14:10:09;;;;;;;8.63;2.53;;;;;;;;;;4990222;28;20209;-66
2023/12/20 14:12:38;;;;;;;9.35;3.88;;;;;;;;;;4989789;28;20222;-66
2023/12/20 14:15:09;;;;;;;4.63;2.20;;;;;;;;;;4990743;28;20233;-66
2023/12/20 14:17:37;;;;;;;7.63;2.97;;;;;;;;;;4985506;28;20199;-66
2023/12/20 14:20:06;;;;;;;2.78;1.52;;;;;;;;;;4978891;28;20196;-66
2023/12/20 14:22:34;;;;;;;6.10;2.40;;;;;;;;;;4995242;28;20186;-66
2023/12/20 14:25:04;;;;;;;5.28;2.20;;;;;;;;;;5009853;28;20206;-66
2023/12/20 14:27:32;;;;;;;19.50;2.67;;;;;;;;;;4995089;28;20199;-68
2023/12/20 14:30:00;;;;;;;13.65;2.10;;;;;;;;;;4990227;28;20207;-66
2023/12/20 14:32:28;;;;;;;5.07;2.92;;;;;;;;;;4972656;28;20224;-66
2023/12/20 14:34:56;;;;;;;9.43;2.92;;;;;;;;;;4975775;28;20234;-66
2023/12/20 14:37:25;;;;;;;14.32;3.50;;;;;;;;;;4984328;28;20228;-67
2023/12/20 14:39:54;;;;;;;9.57;3.13;;;;;;;;;;4977260;28;20211;-66
2023/12/20 14:42:23;;;;;;;9.35;3.22;;;;;;;;;;4985524;28;20556;-66
2023/12/20 14:44:54;;;;;;;5.40;2.22;;;;;;;;;;4984752;28;20219;-66
2023/12/20 14:47:22;;;;;;;12.23;2.60;;;;;;;;;;4986359;28;20191;-66